Terminal Aerodrome Forecast
Issued by NWS

Home | Current Version | Previous Version | Text Only | Print | Product List | Glossary On
Versions: 1 2 3 4 5 6 7 8 9 10 11 12 13 14 15 16 17
000
FTUS41 KCLE 020500
TAFFDY
TAF
KFDY 020520Z 0206/0306 17010KT P6SM SCT100 BKN250
     FM021300 20018G28KT P6SM VCSH BKN050 OVC100
     FM021600 20020G30KT P6SM -SHRA SCT025 OVC050
     FM022000 22015G25KT 5SM -RA BR OVC025=

USA.gov is the U.S. government's official web portal to all federal, state and local government web resources and services.